sensor_id;sensor_type;location;lat;lon;timestamp;P1;durP1;ratioP1;P2;durP2;ratioP2
17504;SDS011;8870;50.950;11.762;2024-02-16T00:01:58;2.38;;;1.23;;
17504;SDS011;8870;50.950;11.762;2024-02-16T00:07:31;3.53;;;1.10;;
17504;SDS011;8870;50.950;11.762;2024-02-16T00:13:03;2.90;;;1.30;;
17504;SDS011;8870;50.950;11.762;2024-02-16T00:18:21;2.05;;;1.30;;
17504;SDS011;8870;50.950;11.762;2024-02-16T00:23:54;2.58;;;1.27;;
17504;SDS011;8870;50.950;11.762;2024-02-16T00:29:28;2.22;;;1.13;;
17504;SDS011;8870;50.950;11.762;2024-02-16T00:34:46;2.20;;;1.20;;
17504;SDS011;8870;50.950;11.762;2024-02-16T00:40:19;1.92;;;1.20;;
17504;SDS011;8870;50.950;11.762;2024-02-16T00:45:41;2.00;;;1.20;;
17504;SDS011;8870;50.950;11.762;2024-02-16T00:51:12;2.05;;;1.00;;
17504;SDS011;8870;50.950;11.762;2024-02-16T00:56:32;2.63;;;1.30;;
17504;SDS011;8870;50.950;11.762;2024-02-16T01:02:03;5.30;;;1.17;;
17504;SDS011;8870;50.950;11.762;2024-02-16T01:07:29;1.27;;;1.13;;
17504;SDS011;8870;50.950;11.762;2024-02-16T01:13:03;2.00;;;1.15;;
17504;SDS011;8870;50.950;11.762;2024-02-16T01:18:22;1.60;;;1.00;;
17504;SDS011;8870;50.950;11.762;2024-02-16T01:23:55;2.05;;;1.10;;
17504;SDS011;8870;50.950;11.762;2024-02-16T01:29:16;2.38;;;1.02;;
17504;SDS011;8870;50.950;11.762;2024-02-16T01:34:48;1.52;;;1.10;;
17504;SDS011;8870;50.950;11.762;2024-02-16T01:40:08;1.80;;;0.90;;
17504;SDS011;8870;50.950;11.762;2024-02-16T01:45:42;2.85;;;1.10;;
17504;SDS011;8870;50.950;11.762;2024-02-16T01:51:01;1.38;;;0.90;;
17504;SDS011;8870;50.950;11.762;2024-02-16T01:56:33;2.72;;;1.08;;
17504;SDS011;8870;50.950;11.762;2024-02-16T02:01:53;2.15;;;1.00;;
17504;SDS011;8870;50.950;11.762;2024-02-16T02:07:25;1.88;;;1.10;;
17504;SDS011;8870;50.950;11.762;2024-02-16T02:12:56;1.73;;;0.90;;
17504;SDS011;8870;50.950;11.762;2024-02-16T02:18:17;2.28;;;0.90;;
17504;SDS011;8870;50.950;11.762;2024-02-16T02:23:51;2.22;;;1.02;;
17504;SDS011;8870;50.950;11.762;2024-02-16T02:29:10;1.30;;;0.85;;
17504;SDS011;8870;50.950;11.762;2024-02-16T02:34:42;2.90;;;0.80;;
17504;SDS011;8870;50.950;11.762;2024-02-16T02:40:04;1.35;;;0.80;;
17504;SDS011;8870;50.950;11.762;2024-02-16T02:45:36;1.27;;;0.70;;
17504;SDS011;8870;50.950;11.762;2024-02-16T02:50:54;2.28;;;0.80;;
17504;SDS011;8870;50.950;11.762;2024-02-16T02:56:27;1.90;;;0.80;;
17504;SDS011;8870;50.950;11.762;2024-02-16T03:01:46;3.17;;;0.82;;
17504;SDS011;8870;50.950;11.762;2024-02-16T03:07:17;2.65;;;0.70;;
17504;SDS011;8870;50.950;11.762;2024-02-16T03:12:50;1.90;;;0.83;;
17504;SDS011;8870;50.950;11.762;2024-02-16T03:18:10;1.98;;;0.85;;
17504;SDS011;8870;50.950;11.762;2024-02-16T03:23:41;1.48;;;0.70;;
17504;SDS011;8870;50.950;11.762;2024-02-16T03:29:01;2.05;;;0.82;;
17504;SDS011;8870;50.950;11.762;2024-02-16T03:34:33;1.38;;;0.70;;
17504;SDS011;8870;50.950;11.762;2024-02-16T03:39:51;1.27;;;0.88;;
17504;SDS011;8870;50.950;11.762;2024-02-16T03:45:24;3.13;;;0.90;;
17504;SDS011;8870;50.950;11.762;2024-02-16T03:50:44;1.55;;;0.65;;
17504;SDS011;8870;50.950;11.762;2024-02-16T03:56:18;1.02;;;0.57;;
17504;SDS011;8870;50.950;11.762;2024-02-16T04:01:38;1.30;;;0.70;;
17504;SDS011;8870;50.950;11.762;2024-02-16T04:07:10;1.33;;;1.00;;
17504;SDS011;8870;50.950;11.762;2024-02-16T04:12:28;1.63;;;0.80;;
17504;SDS011;8870;50.950;11.762;2024-02-16T04:18:01;2.97;;;0.77;;
17504;SDS011;8870;50.950;11.762;2024-02-16T04:23:20;1.77;;;0.80;;
17504;SDS011;8870;50.950;11.762;2024-02-16T04:28:51;1.58;;;0.68;;
17504;SDS011;8870;50.950;11.762;2024-02-16T04:34:11;0.90;;;0.70;;
17504;SDS011;8870;50.950;11.762;2024-02-16T04:39:44;1.27;;;0.60;;
17504;SDS011;8870;50.950;11.762;2024-02-16T04:45:02;2.63;;;0.80;;
17504;SDS011;8870;50.950;11.762;2024-02-16T04:50:37;0.98;;;0.65;;
17504;SDS011;8870;50.950;11.762;2024-02-16T04:55:56;0.90;;;0.63;;
17504;SDS011;8870;50.950;11.762;2024-02-16T05:01:27;1.42;;;0.70;;
17504;SDS011;8870;50.950;11.762;2024-02-16T05:12:17;1.52;;;0.90;;
17504;SDS011;8870;50.950;11.762;2024-02-16T05:17:36;1.42;;;0.68;;
17504;SDS011;8870;50.950;11.762;2024-02-16T05:23:09;0.80;;;0.60;;
17504;SDS011;8870;50.950;11.762;2024-02-16T05:28:29;1.13;;;0.70;;
17504;SDS011;8870;50.950;11.762;2024-02-16T05:34:01;0.90;;;0.57;;
17504;SDS011;8870;50.950;11.762;2024-02-16T05:39:21;1.00;;;0.60;;
17504;SDS011;8870;50.950;11.762;2024-02-16T05:44:53;2.95;;;0.70;;
17504;SDS011;8870;50.950;11.762;2024-02-16T05:50:11;1.85;;;0.60;;
17504;SDS011;8870;50.950;11.762;2024-02-16T05:55:46;0.88;;;0.70;;
17504;SDS011;8870;50.950;11.762;2024-02-16T06:01:05;2.40;;;0.70;;
17504;SDS011;8870;50.950;11.762;2024-02-16T06:06:36;1.83;;;0.60;;
17504;SDS011;8870;50.950;11.762;2024-02-16T06:11:57;1.30;;;0.57;;
17504;SDS011;8870;50.950;11.762;2024-02-16T06:17:31;0.50;;;0.50;;
17504;SDS011;8870;50.950;11.762;2024-02-16T06:22:49;0.80;;;0.70;;
17504;SDS011;8870;50.950;11.762;2024-02-16T06:28:23;1.48;;;0.73;;
17504;SDS011;8870;50.950;11.762;2024-02-16T06:33:42;0.95;;;0.65;;
17504;SDS011;8870;50.950;11.762;2024-02-16T06:39:16;0.52;;;0.50;;
17504;SDS011;8870;50.950;11.762;2024-02-16T06:44:37;0.80;;;0.80;;
17504;SDS011;8870;50.950;11.762;2024-02-16T06:50:09;0.60;;;0.60;;
17504;SDS011;8870;50.950;11.762;2024-02-16T06:55:28;2.25;;;0.85;;
17504;SDS011;8870;50.950;11.762;2024-02-16T07:01:01;1.15;;;0.77;;
17504;SDS011;8870;50.950;11.762;2024-02-16T07:06:27;1.70;;;0.90;;
17504;SDS011;8870;50.950;11.762;2024-02-16T07:11:58;1.73;;;0.80;;
17504;SDS011;8870;50.950;11.762;2024-02-16T07:17:19;1.17;;;0.80;;
17504;SDS011;8870;50.950;11.762;2024-02-16T07:22:51;0.90;;;0.68;;
17504;SDS011;8870;50.950;11.762;2024-02-16T07:28:10;1.15;;;0.75;;
17504;SDS011;8870;50.950;11.762;2024-02-16T07:33:43;1.30;;;0.80;;
17504;SDS011;8870;50.950;11.762;2024-02-16T07:39:02;1.05;;;0.63;;
17504;SDS011;8870;50.950;11.762;2024-02-16T07:44:35;0.95;;;0.70;;
17504;SDS011;8870;50.950;11.762;2024-02-16T08:01:03;2.55;;;0.80;;
17504;SDS011;8870;50.950;11.762;2024-02-16T08:06:39;1.80;;;0.85;;
17504;SDS011;8870;50.950;11.762;2024-02-16T08:11:59;1.70;;;0.80;;
17504;SDS011;8870;50.950;11.762;2024-02-16T08:17:30;1.00;;;0.70;;
17504;SDS011;8870;50.950;11.762;2024-02-16T08:22:51;0.95;;;0.70;;
17504;SDS011;8870;50.950;11.762;2024-02-16T08:28:22;0.85;;;0.70;;
17504;SDS011;8870;50.950;11.762;2024-02-16T08:33:40;1.25;;;0.65;;
17504;SDS011;8870;50.950;11.762;2024-02-16T08:39:14;1.67;;;0.80;;
17504;SDS011;8870;50.950;11.762;2024-02-16T08:44:35;2.63;;;0.85;;
17504;SDS011;8870;50.950;11.762;2024-02-16T08:50:06;1.38;;;0.80;;
17504;SDS011;8870;50.950;11.762;2024-02-16T08:55:28;3.72;;;0.90;;
17504;SDS011;8870;50.950;11.762;2024-02-16T09:01:00;1.63;;;0.82;;
17504;SDS011;8870;50.950;11.762;2024-02-16T09:06:18;1.08;;;0.80;;
17504;SDS011;8870;50.950;11.762;2024-02-16T09:11:52;1.00;;;0.70;;
17504;SDS011;8870;50.950;11.762;2024-02-16T09:17:11;0.80;;;0.80;;
17504;SDS011;8870;50.950;11.762;2024-02-16T09:22:43;1.17;;;0.70;;
17504;SDS011;8870;50.950;11.762;2024-02-16T09:28:04;1.48;;;0.80;;
17504;SDS011;8870;50.950;11.762;2024-02-16T09:33:44;2.60;;;0.77;;
17504;SDS011;8870;50.950;11.762;2024-02-16T09:39:03;1.25;;;0.80;;
17504;SDS011;8870;50.950;11.762;2024-02-16T09:44:40;1.13;;;0.70;;
17504;SDS011;8870;50.950;11.762;2024-02-16T09:50:00;0.82;;;0.70;;
17504;SDS011;8870;50.950;11.762;2024-02-16T09:55:32;1.60;;;0.60;;
17504;SDS011;8870;50.950;11.762;2024-02-16T10:00:54;0.63;;;0.57;;
17504;SDS011;8870;50.950;11.762;2024-02-16T10:06:26;0.77;;;0.60;;
17504;SDS011;8870;50.950;11.762;2024-02-16T10:11:44;1.10;;;0.85;;
17504;SDS011;8870;50.950;11.762;2024-02-16T10:17:19;0.73;;;0.73;;
17504;SDS011;8870;50.950;11.762;2024-02-16T10:22:38;2.30;;;0.60;;
17504;SDS011;8870;50.950;11.762;2024-02-16T10:28:10;1.95;;;0.70;;
17504;SDS011;8870;50.950;11.762;2024-02-16T10:33:32;1.33;;;0.77;;
17504;SDS011;8870;50.950;11.762;2024-02-16T10:39:05;2.78;;;0.80;;
17504;SDS011;8870;50.950;11.762;2024-02-16T10:44:26;1.50;;;0.80;;
17504;SDS011;8870;50.950;11.762;2024-02-16T10:50:00;1.33;;;0.70;;
17504;SDS011;8870;50.950;11.762;2024-02-16T10:55:19;1.90;;;0.80;;
17504;SDS011;8870;50.950;11.762;2024-02-16T11:00:50;1.17;;;0.82;;
17504;SDS011;8870;50.950;11.762;2024-02-16T11:06:20;1.02;;;0.70;;
17504;SDS011;8870;50.950;11.762;2024-02-16T11:11:53;1.92;;;0.77;;
17504;SDS011;8870;50.950;11.762;2024-02-16T11:17:13;2.78;;;0.98;;
17504;SDS011;8870;50.950;11.762;2024-02-16T11:22:47;1.30;;;0.70;;
17504;SDS011;8870;50.950;11.762;2024-02-16T11:28:06;1.80;;;1.00;;
17504;SDS011;8870;50.950;11.762;2024-02-16T11:33:43;2.85;;;0.90;;
17504;SDS011;8870;50.950;11.762;2024-02-16T11:39:04;3.88;;;0.80;;
17504;SDS011;8870;50.950;11.762;2024-02-16T11:44:50;1.23;;;0.85;;
17504;SDS011;8870;50.950;11.762;2024-02-16T11:50:09;2.00;;;1.00;;
17504;SDS011;8870;50.950;11.762;2024-02-16T11:55:48;1.42;;;0.80;;
17504;SDS011;8870;50.950;11.762;2024-02-16T12:01:10;1.70;;;0.90;;
17504;SDS011;8870;50.950;11.762;2024-02-16T12:06:43;3.30;;;0.80;;
17504;SDS011;8870;50.950;11.762;2024-02-16T12:12:21;1.40;;;0.80;;
17504;SDS011;8870;50.950;11.762;2024-02-16T12:17:41;0.93;;;0.70;;
17504;SDS011;8870;50.950;11.762;2024-02-16T12:23:12;2.72;;;1.10;;
17504;SDS011;8870;50.950;11.762;2024-02-16T12:28:33;1.73;;;1.20;;
17504;SDS011;8870;50.950;11.762;2024-02-16T12:34:04;1.42;;;1.10;;
17504;SDS011;8870;50.950;11.762;2024-02-16T12:39:22;1.33;;;0.90;;
17504;SDS011;8870;50.950;11.762;2024-02-16T12:44:55;2.22;;;0.90;;
17504;SDS011;8870;50.950;11.762;2024-02-16T12:50:14;2.78;;;1.30;;
17504;SDS011;8870;50.950;11.762;2024-02-16T12:55:45;3.33;;;0.88;;
17504;SDS011;8870;50.950;11.762;2024-02-16T13:01:06;1.40;;;0.90;;
17504;SDS011;8870;50.950;11.762;2024-02-16T13:06:41;1.13;;;0.80;;
17504;SDS011;8870;50.950;11.762;2024-02-16T13:12:01;1.27;;;1.00;;
17504;SDS011;8870;50.950;11.762;2024-02-16T13:17:36;1.67;;;1.10;;
17504;SDS011;8870;50.950;11.762;2024-02-16T13:22:56;1.05;;;0.90;;
17504;SDS011;8870;50.950;11.762;2024-02-16T13:28:28;1.13;;;0.93;;
17504;SDS011;8870;50.950;11.762;2024-02-16T13:33:49;2.13;;;1.00;;
17504;SDS011;8870;50.950;11.762;2024-02-16T13:45:10;1.38;;;0.95;;
17504;SDS011;8870;50.950;11.762;2024-02-16T13:50:32;3.47;;;0.90;;
17504;SDS011;8870;50.950;11.762;2024-02-16T13:56:04;2.67;;;1.02;;
17504;SDS011;8870;50.950;11.762;2024-02-16T14:01:23;1.58;;;1.00;;
17504;SDS011;8870;50.950;11.762;2024-02-16T14:06:58;1.40;;;0.80;;
17504;SDS011;8870;50.950;11.762;2024-02-16T14:12:31;2.03;;;1.00;;
17504;SDS011;8870;50.950;11.762;2024-02-16T14:17:49;1.25;;;0.90;;
17504;SDS011;8870;50.950;11.762;2024-02-16T14:23:34;2.75;;;1.00;;
17504;SDS011;8870;50.950;11.762;2024-02-16T14:28:53;1.08;;;0.70;;
17504;SDS011;8870;50.950;11.762;2024-02-16T14:34:24;0.80;;;0.73;;
17504;SDS011;8870;50.950;11.762;2024-02-16T14:39:45;2.78;;;0.82;;
17504;SDS011;8870;50.950;11.762;2024-02-16T14:45:19;1.45;;;0.93;;
17504;SDS011;8870;50.950;11.762;2024-02-16T14:50:46;2.05;;;1.10;;
17504;SDS011;8870;50.950;11.762;2024-02-16T14:56:21;1.63;;;1.08;;
17504;SDS011;8870;50.950;11.762;2024-02-16T15:01:40;1.55;;;0.82;;
17504;SDS011;8870;50.950;11.762;2024-02-16T15:07:13;1.23;;;0.90;;
17504;SDS011;8870;50.950;11.762;2024-02-16T15:12:34;0.80;;;0.75;;
17504;SDS011;8870;50.950;11.762;2024-02-16T15:18:05;1.23;;;0.80;;
17504;SDS011;8870;50.950;11.762;2024-02-16T15:23:23;2.25;;;0.95;;
17504;SDS011;8870;50.950;11.762;2024-02-16T15:28:58;2.10;;;1.00;;
17504;SDS011;8870;50.950;11.762;2024-02-16T15:34:16;2.10;;;0.80;;
17504;SDS011;8870;50.950;11.762;2024-02-16T15:39:47;2.25;;;1.35;;
17504;SDS011;8870;50.950;11.762;2024-02-16T15:45:09;1.33;;;1.10;;
17504;SDS011;8870;50.950;11.762;2024-02-16T15:50:40;2.97;;;1.13;;
17504;SDS011;8870;50.950;11.762;2024-02-16T15:56:03;3.97;;;1.52;;
17504;SDS011;8870;50.950;11.762;2024-02-16T16:01:38;2.67;;;1.88;;
17504;SDS011;8870;50.950;11.762;2024-02-16T16:06:56;3.22;;;2.17;;
17504;SDS011;8870;50.950;11.762;2024-02-16T16:12:27;3.78;;;2.63;;
17504;SDS011;8870;50.950;11.762;2024-02-16T16:17:48;2.78;;;1.60;;
17504;SDS011;8870;50.950;11.762;2024-02-16T16:23:19;2.85;;;1.30;;
17504;SDS011;8870;50.950;11.762;2024-02-16T16:28:37;2.95;;;1.40;;
17504;SDS011;8870;50.950;11.762;2024-02-16T16:34:11;1.63;;;1.20;;
17504;SDS011;8870;50.950;11.762;2024-02-16T16:39:29;2.72;;;1.30;;
17504;SDS011;8870;50.950;11.762;2024-02-16T16:45:00;2.85;;;1.58;;
17504;SDS011;8870;50.950;11.762;2024-02-16T16:50:28;5.00;;;2.10;;
17504;SDS011;8870;50.950;11.762;2024-02-16T16:56:01;2.22;;;1.73;;
17504;SDS011;8870;50.950;11.762;2024-02-16T17:01:19;3.70;;;1.75;;
17504;SDS011;8870;50.950;11.762;2024-02-16T17:06:53;2.38;;;1.70;;
17504;SDS011;8870;50.950;11.762;2024-02-16T17:12:11;2.47;;;1.50;;
17504;SDS011;8870;50.950;11.762;2024-02-16T17:17:42;1.67;;;1.35;;
17504;SDS011;8870;50.950;11.762;2024-02-16T17:23:08;2.85;;;1.40;;
17504;SDS011;8870;50.950;11.762;2024-02-16T17:28:39;2.63;;;1.40;;
17504;SDS011;8870;50.950;11.762;2024-02-16T17:33:57;3.20;;;1.60;;
17504;SDS011;8870;50.950;11.762;2024-02-16T17:39:32;3.05;;;1.60;;
17504;SDS011;8870;50.950;11.762;2024-02-16T17:44:51;2.58;;;1.50;;
17504;SDS011;8870;50.950;11.762;2024-02-16T17:50:28;3.33;;;1.30;;
17504;SDS011;8870;50.950;11.762;2024-02-16T17:55:49;1.70;;;1.20;;
17504;SDS011;8870;50.950;11.762;2024-02-16T18:01:20;1.80;;;1.48;;
17504;SDS011;8870;50.950;11.762;2024-02-16T18:06:38;4.00;;;2.20;;
17504;SDS011;8870;50.950;11.762;2024-02-16T18:12:12;3.13;;;1.90;;
17504;SDS011;8870;50.950;11.762;2024-02-16T18:17:32;2.58;;;1.63;;
17504;SDS011;8870;50.950;11.762;2024-02-16T18:23:03;3.60;;;1.63;;
17504;SDS011;8870;50.950;11.762;2024-02-16T18:28:24;3.13;;;1.50;;
17504;SDS011;8870;50.950;11.762;2024-02-16T18:34:00;5.35;;;1.80;;
17504;SDS011;8870;50.950;11.762;2024-02-16T18:39:19;3.47;;;1.38;;
17504;SDS011;8870;50.950;11.762;2024-02-16T18:44:53;2.75;;;1.38;;
17504;SDS011;8870;50.950;11.762;2024-02-16T18:50:11;4.38;;;1.52;;
17504;SDS011;8870;50.950;11.762;2024-02-16T18:55:42;5.22;;;1.90;;
17504;SDS011;8870;50.950;11.762;2024-02-16T19:01:03;8.45;;;1.50;;
17504;SDS011;8870;50.950;11.762;2024-02-16T19:06:34;2.47;;;1.70;;
17504;SDS011;8870;50.950;11.762;2024-02-16T19:11:53;5.95;;;1.63;;
17504;SDS011;8870;50.950;11.762;2024-02-16T19:17:27;2.78;;;1.60;;
17504;SDS011;8870;50.950;11.762;2024-02-16T19:22:45;2.67;;;1.63;;
17504;SDS011;8870;50.950;11.762;2024-02-16T19:28:16;4.20;;;1.70;;
17504;SDS011;8870;50.950;11.762;2024-02-16T19:33:37;2.42;;;1.75;;
17504;SDS011;8870;50.950;11.762;2024-02-16T19:39:08;2.88;;;1.63;;
17504;SDS011;8870;50.950;11.762;2024-02-16T19:44:30;6.60;;;2.10;;
17504;SDS011;8870;50.950;11.762;2024-02-16T19:50:04;3.80;;;2.38;;
17504;SDS011;8870;50.950;11.762;2024-02-16T19:55:25;3.67;;;2.10;;
17504;SDS011;8870;50.950;11.762;2024-02-16T20:00:58;2.38;;;1.67;;
17504;SDS011;8870;50.950;11.762;2024-02-16T20:06:21;5.38;;;2.00;;
17504;SDS011;8870;50.950;11.762;2024-02-16T20:11:52;3.85;;;1.92;;
17504;SDS011;8870;50.950;11.762;2024-02-16T20:17:10;4.95;;;1.70;;
17504;SDS011;8870;50.950;11.762;2024-02-16T20:22:44;3.20;;;1.83;;
17504;SDS011;8870;50.950;11.762;2024-02-16T20:28:02;3.28;;;1.70;;
17504;SDS011;8870;50.950;11.762;2024-02-16T20:33:34;5.60;;;1.90;;
17504;SDS011;8870;50.950;11.762;2024-02-16T20:38:55;3.42;;;1.63;;
17504;SDS011;8870;50.950;11.762;2024-02-16T20:44:26;3.33;;;2.30;;
17504;SDS011;8870;50.950;11.762;2024-02-16T20:49:44;4.07;;;2.22;;
17504;SDS011;8870;50.950;11.762;2024-02-16T20:55:19;5.13;;;2.22;;
17504;SDS011;8870;50.950;11.762;2024-02-16T21:00:37;4.00;;;2.30;;
17504;SDS011;8870;50.950;11.762;2024-02-16T21:06:08;5.47;;;2.30;;
17504;SDS011;8870;50.950;11.762;2024-02-16T21:11:29;4.68;;;2.38;;
17504;SDS011;8870;50.950;11.762;2024-02-16T21:17:00;5.07;;;2.67;;
17504;SDS011;8870;50.950;11.762;2024-02-16T21:22:18;3.67;;;2.25;;
17504;SDS011;8870;50.950;11.762;2024-02-16T21:27:54;5.68;;;2.35;;
17504;SDS011;8870;50.950;11.762;2024-02-16T21:33:12;3.63;;;2.50;;
17504;SDS011;8870;50.950;11.762;2024-02-16T21:38:43;5.20;;;2.80;;
17504;SDS011;8870;50.950;11.762;2024-02-16T21:44:04;4.53;;;2.38;;
17504;SDS011;8870;50.950;11.762;2024-02-16T21:49:36;4.65;;;2.40;;
17504;SDS011;8870;50.950;11.762;2024-02-16T21:54:54;4.57;;;2.45;;
17504;SDS011;8870;50.950;11.762;2024-02-16T22:00:28;4.20;;;2.83;;
17504;SDS011;8870;50.950;11.762;2024-02-16T22:05:46;4.50;;;2.50;;
17504;SDS011;8870;50.950;11.762;2024-02-16T22:11:20;5.20;;;2.35;;
17504;SDS011;8870;50.950;11.762;2024-02-16T22:16:41;4.55;;;2.45;;
17504;SDS011;8870;50.950;11.762;2024-02-16T22:22:12;4.38;;;2.75;;
17504;SDS011;8870;50.950;11.762;2024-02-16T22:27:30;3.35;;;2.50;;
17504;SDS011;8870;50.950;11.762;2024-02-16T22:33:06;3.90;;;2.60;;
17504;SDS011;8870;50.950;11.762;2024-02-16T22:38:38;4.43;;;2.65;;
17504;SDS011;8870;50.950;11.762;2024-02-16T22:43:56;4.80;;;2.65;;
17504;SDS011;8870;50.950;11.762;2024-02-16T22:49:30;2.95;;;2.40;;
17504;SDS011;8870;50.950;11.762;2024-02-16T22:54:48;6.80;;;2.90;;
17504;SDS011;8870;50.950;11.762;2024-02-16T23:00:20;6.00;;;2.97;;
17504;SDS011;8870;50.950;11.762;2024-02-16T23:05:42;5.97;;;3.38;;
17504;SDS011;8870;50.950;11.762;2024-02-16T23:11:18;4.75;;;3.15;;
17504;SDS011;8870;50.950;11.762;2024-02-16T23:16:36;6.60;;;3.10;;
17504;SDS011;8870;50.950;11.762;2024-02-16T23:22:10;5.43;;;3.28;;
17504;SDS011;8870;50.950;11.762;2024-02-16T23:27:28;5.18;;;3.35;;
17504;SDS011;8870;50.950;11.762;2024-02-16T23:32:59;6.72;;;3.17;;
17504;SDS011;8870;50.950;11.762;2024-02-16T23:38:27;4.60;;;2.80;;
17504;SDS011;8870;50.950;11.762;2024-02-16T23:43:52;4.28;;;3.38;;
17504;SDS011;8870;50.950;11.762;2024-02-16T23:49:10;6.47;;;4.60;;
17504;SDS011;8870;50.950;11.762;2024-02-16T23:54:44;5.75;;;4.60;;
